createdAt,value
2023-03-01T00:02:09.630Z,95151.03
2023-03-01T00:04:36.822Z,95147.00
2023-03-01T00:07:03.602Z,95144.34
2023-03-01T00:09:30.256Z,95140.13
2023-03-01T00:11:56.985Z,95134.34
2023-03-01T00:14:24.810Z,95134.88
2023-03-01T00:16:51.617Z,95132.22
2023-03-01T00:19:20.537Z,95125.97
2023-03-01T00:21:47.615Z,95128.47
2023-03-01T00:24:14.301Z,95132.88
2023-03-01T00:26:41.372Z,95129.13
2023-03-01T00:29:08.123Z,95123.31
2023-03-01T00:31:35.258Z,95118.63
2023-03-01T00:34:04.952Z,95124.22
2023-03-01T00:36:35.044Z,95116.34
2023-03-01T00:39:02.540Z,95116.34
2023-03-01T00:41:29.553Z,95119.16
2023-03-01T00:43:56.421Z,95125.09
2023-03-01T00:46:26.298Z,95113.44
2023-03-01T00:48:53.510Z,95115.84
2023-03-01T00:51:23.430Z,95115.78
2023-03-01T00:53:54.682Z,95109.06
2023-03-01T00:56:22.258Z,95113.09
2023-03-01T00:58:49.231Z,95097.69
2023-03-01T01:01:19.521Z,95094.66
2023-03-01T01:03:50.576Z,95092.50
2023-03-01T01:06:19.999Z,95099.50
2023-03-01T01:08:47.054Z,95088.88
2023-03-01T01:11:14.303Z,95083.59
2023-03-01T01:13:41.821Z,95085.94
2023-03-01T01:16:09.622Z,95080.28
2023-03-01T01:18:36.695Z,95071.53
2023-03-01T01:21:09.257Z,95070.31
2023-03-01T01:23:36.337Z,95066.63
2023-03-01T01:26:08.720Z,95061.00
2023-03-01T01:28:36.574Z,95058.09
2023-03-01T01:31:03.635Z,95053.25
2023-03-01T01:33:30.594Z,95054.75
2023-03-01T01:35:57.401Z,95052.63
2023-03-01T01:38:24.194Z,95057.06
2023-03-01T01:40:52.390Z,95052.31
2023-03-01T01:43:26.037Z,95050.84
2023-03-01T01:45:58.289Z,95047.03
2023-03-01T01:48:41.286Z,95035.91
2023-03-01T01:51:12.921Z,95034.59
2023-03-01T01:53:41.017Z,95034.50
2023-03-01T01:56:10.205Z,95036.63
2023-03-01T01:58:37.480Z,95036.72
2023-03-01T02:01:04.778Z,95038.00
2023-03-01T02:03:38.467Z,95039.75
2023-03-01T02:06:07.480Z,95026.69
2023-03-01T02:08:38.795Z,95026.63
2023-03-01T02:11:06.245Z,95024.53
2023-03-01T02:13:33.898Z,95025.00
2023-03-01T02:16:03.297Z,95031.25
2023-03-01T02:18:29.977Z,95020.47
2023-03-01T02:21:15.923Z,95017.56
2023-03-01T02:23:43.034Z,95021.84
2023-03-01T02:26:20.139Z,95022.50
2023-03-01T02:28:47.134Z,95021.44
2023-03-01T02:31:36.173Z,95010.56
2023-03-01T02:34:05.532Z,95017.41
2023-03-01T02:36:41.860Z,95014.97
2023-03-01T02:39:15.399Z,95014.41
2023-03-01T02:41:47.551Z,95018.69
2023-03-01T02:44:14.505Z,95017.00
2023-03-01T02:46:47.575Z,95018.22
2023-03-01T02:49:32.890Z,95013.53
2023-03-01T02:52:08.294Z,95014.34
2023-03-01T02:54:48.179Z,95017.88
2023-03-01T02:57:15.794Z,95018.06
2023-03-01T02:59:44.080Z,95015.72
2023-03-01T03:02:36.920Z,95006.97
2023-03-01T03:05:07.159Z,95008.34
2023-03-01T03:07:35.270Z,95004.22
2023-03-01T03:10:03.186Z,95006.44
2023-03-01T03:12:29.769Z,95007.22
2023-03-01T03:14:56.395Z,95009.81
2023-03-01T03:17:23.229Z,95009.50
2023-03-01T03:19:50.014Z,95011.50
2023-03-01T03:22:16.687Z,95015.44
2023-03-01T03:24:43.320Z,95010.56
2023-03-01T03:27:09.903Z,95015.44
2023-03-01T03:29:36.667Z,95010.38
2023-03-01T03:32:04.121Z,95012.72
2023-03-01T03:34:32.010Z,95007.31
2023-03-01T03:37:00.397Z,95006.25
2023-03-01T03:39:28.076Z,95011.34
2023-03-01T03:41:55.009Z,95008.28
2023-03-01T03:44:22.470Z,95009.91
2023-03-01T03:46:49.036Z,95007.38
2023-03-01T03:49:15.726Z,94999.94
2023-03-01T03:51:42.329Z,94995.56
2023-03-01T03:54:12.129Z,94999.13
2023-03-01T03:56:40.027Z,94991.06
2023-03-01T03:59:06.906Z,94997.59
2023-03-01T04:01:33.592Z,94987.97
2023-03-01T04:04:05.112Z,94983.78
2023-03-01T04:06:32.186Z,94985.22
2023-03-01T04:09:00.990Z,94980.22
2023-03-01T04:11:27.585Z,94987.50
2023-03-01T04:13:58.692Z,94977.41
2023-03-01T04:16:25.801Z,94980.44
2023-03-01T04:18:54.451Z,94982.00
2023-03-01T04:21:21.339Z,94974.66
2023-03-01T04:23:48.110Z,94979.19
2023-03-01T04:26:17.909Z,94973.59
2023-03-01T04:28:46.345Z,94971.44
2023-03-01T04:31:19.494Z,94980.78
2023-03-01T04:33:49.578Z,94979.34
2023-03-01T04:36:18.609Z,94976.97
2023-03-01T04:38:48.573Z,94976.50
2023-03-01T04:41:17.407Z,94970.16
2023-03-01T04:43:43.992Z,94979.19
2023-03-01T04:46:15.464Z,94972.78
2023-03-01T04:48:44.647Z,94971.50
2023-03-01T04:51:14.707Z,94973.69
2023-03-01T04:53:42.365Z,94969.34
2023-03-01T04:56:09.023Z,94965.31
2023-03-01T04:58:35.688Z,94961.41
2023-03-01T05:01:02.305Z,94957.22
2023-03-01T05:03:29.690Z,94949.19
2023-03-01T05:06:00.751Z,94947.31
2023-03-01T05:08:27.936Z,94951.47
2023-03-01T05:10:55.445Z,94952.09
2023-03-01T05:13:22.993Z,94945.06
2023-03-01T05:15:54.542Z,94953.16
2023-03-01T05:18:21.754Z,94947.09
2023-03-01T05:20:48.530Z,94945.78
2023-03-01T05:23:15.131Z,94949.84
2023-03-01T05:25:42.372Z,94949.19
2023-03-01T05:28:12.802Z,94936.59
2023-03-01T05:30:40.287Z,94942.53
2023-03-01T05:33:14.231Z,94932.91
2023-03-01T05:35:45.769Z,94937.75
2023-03-01T05:38:16.891Z,94929.72
2023-03-01T05:40:45.315Z,94928.38
2023-03-01T05:43:13.100Z,94932.19
2023-03-01T05:45:40.592Z,94938.19
2023-03-01T05:48:08.184Z,94933.63
2023-03-01T05:50:38.071Z,94941.94
2023-03-01T05:53:27.580Z,94929.44
2023-03-01T05:55:54.391Z,94932.19
2023-03-01T05:58:21.198Z,94939.38
2023-03-01T06:00:49.294Z,94939.13
2023-03-01T06:03:17.409Z,94945.63
2023-03-01T06:05:45.103Z,94934.84
2023-03-01T06:08:12.621Z,94937.75
2023-03-01T06:10:39.961Z,94937.69
2023-03-01T06:13:06.552Z,94937.59
2023-03-01T06:15:33.284Z,94942.69
2023-03-01T06:18:00.448Z,94941.63
2023-03-01T06:20:29.436Z,94939.03
2023-03-01T06:22:56.070Z,94941.97
2023-03-01T06:25:25.343Z,94937.69
2023-03-01T06:27:53.612Z,94946.81
2023-03-01T06:30:21.893Z,94948.94
2023-03-01T06:32:49.567Z,94938.56
2023-03-01T06:35:21.071Z,94935.88
2023-03-01T06:37:49.366Z,94932.66
2023-03-01T06:40:16.962Z,94943.47
2023-03-01T06:42:50.042Z,94930.41
2023-03-01T06:45:17.893Z,94940.19
2023-03-01T06:47:44.744Z,94945.34
2023-03-01T06:50:11.747Z,94946.88
2023-03-01T06:52:38.917Z,94933.88
2023-03-01T06:55:06.222Z,94942.44
2023-03-01T06:57:32.833Z,94940.66
2023-03-01T06:59:59.595Z,94941.72
2023-03-01T07:02:26.234Z,94942.09
2023-03-01T07:04:53.432Z,94941.19
2023-03-01T07:07:20.081Z,94945.63
2023-03-01T07:09:47.506Z,94944.94
2023-03-01T07:12:14.273Z,94937.88
2023-03-01T07:14:41.025Z,94944.63
2023-03-01T07:17:08.020Z,94950.91
2023-03-01T07:19:34.597Z,94945.56
2023-03-01T07:22:01.426Z,94947.31
2023-03-01T07:24:28.022Z,94952.50
2023-03-01T07:26:54.741Z,94944.09
2023-03-01T07:29:21.398Z,94942.41
2023-03-01T07:31:48.277Z,94937.31
2023-03-01T07:34:15.143Z,94936.94
2023-03-01T07:36:44.104Z,94937.38
2023-03-01T07:39:13.866Z,94942.22
2023-03-01T07:41:40.485Z,94936.91
2023-03-01T07:44:07.176Z,94936.00
2023-03-01T07:46:34.081Z,94934.78
2023-03-01T07:49:00.880Z,94945.13
2023-03-01T07:51:27.560Z,94928.91
2023-03-01T07:53:54.173Z,94926.25
2023-03-01T07:56:22.511Z,94924.59
2023-03-01T07:58:50.681Z,94935.41
2023-03-01T08:01:20.281Z,94926.19
2023-03-01T08:03:47.369Z,94924.50
2023-03-01T08:06:16.341Z,94918.66
2023-03-01T08:08:43.167Z,94922.19
2023-03-01T08:11:12.621Z,94925.00
2023-03-01T08:13:39.605Z,94919.91
2023-03-01T08:16:10.751Z,94914.97
2023-03-01T08:18:37.951Z,94924.28
2023-03-01T08:21:07.653Z,94922.31
2023-03-01T08:23:34.778Z,94925.41
2023-03-01T08:26:09.247Z,94923.28
2023-03-01T08:28:36.220Z,94929.53
2023-03-01T08:31:03.391Z,94929.50
2023-03-01T08:33:30.060Z,94926.69
2023-03-01T08:36:05.094Z,94922.81
2023-03-01T08:38:31.664Z,94922.31
2023-03-01T08:41:01.806Z,94921.97
2023-03-01T08:43:28.566Z,94926.25
2023-03-01T08:45:55.166Z,94922.31
2023-03-01T08:48:21.967Z,94924.00
2023-03-01T08:50:48.729Z,94911.25
2023-03-01T08:53:15.370Z,94908.44
2023-03-01T08:55:41.958Z,94911.03
2023-03-01T08:58:08.518Z,94911.69
2023-03-01T09:00:35.707Z,94902.69
2023-03-01T09:03:02.691Z,94899.81
2023-03-01T09:05:29.359Z,94904.97
2023-03-01T09:07:58.118Z,94894.19
2023-03-01T09:10:24.892Z,94901.16
2023-03-01T09:12:52.534Z,94900.31
2023-03-01T09:15:19.152Z,94892.97
2023-03-01T09:17:45.832Z,94893.59
2023-03-01T09:20:12.516Z,94888.84
2023-03-01T09:22:39.241Z,94884.88
2023-03-01T09:25:06.487Z,94888.00
2023-03-01T09:27:33.054Z,94884.59
2023-03-01T09:29:59.654Z,94882.91
2023-03-01T09:32:26.373Z,94881.94
2023-03-01T09:35:07.725Z,94881.41
2023-03-01T09:37:35.761Z,94883.28
2023-03-01T09:40:05.431Z,94881.63
2023-03-01T09:42:35.819Z,94888.84
2023-03-01T09:45:02.703Z,94889.88
2023-03-01T09:47:33.584Z,94887.19
2023-03-01T09:50:06.105Z,94882.31
2023-03-01T09:52:42.692Z,94889.16
2023-03-01T09:55:13.536Z,94881.69
2023-03-01T09:57:48.394Z,94894.03
2023-03-01T10:00:26.028Z,94891.91
2023-03-01T10:03:02.857Z,94878.50
2023-03-01T10:05:37.945Z,94873.72
2023-03-01T10:08:16.671Z,94880.59
2023-03-01T10:10:47.998Z,94869.28
2023-03-01T10:13:25.069Z,94879.53
2023-03-01T10:15:58.842Z,94864.63
2023-03-01T10:18:32.639Z,94868.69
2023-03-01T10:21:03.935Z,94861.00
2023-03-01T10:23:33.189Z,94860.38
2023-03-01T10:26:10.577Z,94862.34
2023-03-01T10:29:02.915Z,94860.63
2023-03-01T10:31:51.943Z,94865.19
2023-03-01T10:34:20.454Z,94859.56
2023-03-01T10:36:57.342Z,94864.34
2023-03-01T10:39:26.059Z,94854.31
2023-03-01T10:41:57.732Z,94850.25
2023-03-01T10:44:43.954Z,94857.50
2023-03-01T10:47:25.711Z,94856.16
2023-03-01T10:49:58.390Z,94861.75
2023-03-01T10:52:34.197Z,94862.06
2023-03-01T10:55:05.553Z,94860.91
2023-03-01T10:57:41.213Z,94854.69
2023-03-01T11:00:27.954Z,94860.91
2023-03-01T11:03:00.564Z,94852.34
2023-03-01T11:05:29.627Z,94856.03
2023-03-01T11:07:58.603Z,94845.16
2023-03-01T11:10:30.998Z,94844.84
2023-03-01T11:13:08.711Z,94849.28
2023-03-01T11:15:36.016Z,94835.72
2023-03-01T11:18:13.769Z,94833.84
2023-03-01T11:20:41.168Z,94824.66
2023-03-01T11:23:13.389Z,94821.19
2023-03-01T11:25:47.209Z,94818.47
2023-03-01T11:28:17.636Z,94811.00
2023-03-01T11:31:09.125Z,94809.75
2023-03-01T11:33:44.524Z,94807.16
2023-03-01T11:36:17.233Z,94793.09
2023-03-01T11:38:44.253Z,94795.53
2023-03-01T11:41:26.725Z,94789.13
2023-03-01T11:44:04.307Z,94784.88
2023-03-01T11:46:34.174Z,94786.94
2023-03-01T11:49:12.738Z,94783.47
2023-03-01T11:51:58.734Z,94785.00
2023-03-01T11:54:31.985Z,94780.34
2023-03-01T11:57:05.359Z,94769.88
2023-03-01T12:00:00.202Z,94759.69
2023-03-01T12:03:00.895Z,94766.78
2023-03-01T12:05:45.304Z,94768.06
2023-03-01T12:08:49.722Z,94763.03
2023-03-01T12:11:37.507Z,94753.34
2023-03-01T12:14:34.627Z,94765.19
2023-03-01T12:17:13.330Z,94758.88
2023-03-01T12:19:51.752Z,94763.34
2023-03-01T12:22:24.380Z,94754.31
2023-03-01T12:25:00.204Z,94750.44
2023-03-01T12:28:05.751Z,94749.13
2023-03-01T12:31:00.079Z,94743.06
2023-03-01T12:33:39.767Z,94744.28
2023-03-01T12:36:12.415Z,94746.09
2023-03-01T12:38:55.597Z,94742.19
2023-03-01T12:41:45.294Z,94753.59
2023-03-01T12:44:45.033Z,94752.63
2023-03-01T12:47:17.205Z,94741.88
2023-03-01T12:49:55.410Z,94737.13
2023-03-01T12:52:33.689Z,94722.28
2023-03-01T12:55:03.528Z,94723.47
2023-03-01T12:57:39.944Z,94712.41
2023-03-01T13:00:12.326Z,94713.13
2023-03-01T13:03:20.356Z,94714.00
2023-03-01T13:05:57.056Z,94716.31
2023-03-01T13:08:37.123Z,94717.00
2023-03-01T13:11:06.714Z,94716.31
2023-03-01T13:13:33.350Z,94732.47
2023-03-01T13:16:39.560Z,94734.69
2023-03-01T13:19:19.461Z,94734.91
2023-03-01T13:21:51.124Z,94730.50
2023-03-01T13:24:44.009Z,94724.84
2023-03-01T13:27:12.757Z,94723.56
2023-03-01T13:29:51.436Z,94716.59
2023-03-01T13:32:43.558Z,94721.56
2023-03-01T13:35:20.311Z,94736.53
2023-03-01T13:37:47.782Z,94730.06
2023-03-01T13:40:19.276Z,94736.16
2023-03-01T13:43:04.140Z,94738.22
2023-03-01T13:45:44.144Z,94735.47
2023-03-01T13:48:17.749Z,94731.84
2023-03-01T13:50:52.789Z,94739.09
2023-03-01T13:53:22.189Z,94731.28
2023-03-01T13:55:56.640Z,94713.25
2023-03-01T13:58:32.663Z,94698.66
2023-03-01T14:01:05.350Z,94701.69
2023-03-01T14:03:34.176Z,94698.50
2023-03-01T14:06:17.789Z,94702.41
2023-03-01T14:08:47.600Z,94700.69
2023-03-01T14:11:38.915Z,94703.72
2023-03-01T14:14:29.967Z,94708.03
2023-03-01T14:17:21.173Z,94708.63
2023-03-01T14:19:49.516Z,94695.50
2023-03-01T14:22:34.546Z,94689.97
2023-03-01T14:25:04.497Z,94687.50
2023-03-01T14:27:37.560Z,94686.06
2023-03-01T14:30:13.864Z,94680.28
2023-03-01T14:32:40.487Z,94675.84
2023-03-01T14:35:35.719Z,94676.22
2023-03-01T14:38:02.692Z,94677.66
2023-03-01T14:40:35.590Z,94669.31
2023-03-01T14:43:12.337Z,94663.78
2023-03-01T14:45:39.180Z,94658.16
2023-03-01T14:48:08.052Z,94663.63
2023-03-01T14:50:43.280Z,94655.66
2023-03-01T14:53:22.838Z,94656.97
2023-03-01T14:55:53.359Z,94652.03
2023-03-01T14:58:23.995Z,94658.47
2023-03-01T15:00:54.147Z,94660.47
2023-03-01T15:03:31.484Z,94662.50
2023-03-01T15:05:58.878Z,94666.06
2023-03-01T15:08:28.078Z,94655.47
2023-03-01T15:11:31.781Z,94648.63
2023-03-01T15:13:59.882Z,94654.78
2023-03-01T15:16:35.114Z,94656.09
2023-03-01T15:19:04.652Z,94655.94
2023-03-01T15:21:39.454Z,94648.44
2023-03-01T15:24:22.997Z,94655.53
2023-03-01T15:26:58.752Z,94664.09
2023-03-01T15:29:30.825Z,94655.84
2023-03-01T15:31:59.895Z,94649.88
2023-03-01T15:34:33.518Z,94656.09
2023-03-01T15:37:02.904Z,94658.69
2023-03-01T15:39:44.489Z,94657.44
2023-03-01T15:42:34.050Z,94655.81
2023-03-01T15:45:21.620Z,94654.94
2023-03-01T15:47:54.063Z,94658.41
2023-03-01T15:50:27.765Z,94661.16
2023-03-01T15:52:55.799Z,94659.72
2023-03-01T15:55:31.118Z,94668.78
2023-03-01T15:58:07.768Z,94663.56
2023-03-01T16:00:34.572Z,94658.53
2023-03-01T16:03:01.304Z,94666.47
2023-03-01T16:05:35.389Z,94672.28
2023-03-01T16:08:02.808Z,94675.59
2023-03-01T16:10:29.928Z,94673.19
2023-03-01T16:12:56.533Z,94673.78
2023-03-01T16:15:33.352Z,94668.03
2023-03-01T16:18:00.291Z,94674.38
2023-03-01T16:20:30.026Z,94672.66
2023-03-01T16:23:02.324Z,94674.66
2023-03-01T16:25:30.244Z,94675.69
2023-03-01T16:27:59.426Z,94668.88
2023-03-01T16:30:26.138Z,94670.47
2023-03-01T16:32:53.784Z,94682.75
2023-03-01T16:35:21.919Z,94680.59
2023-03-01T16:37:49.278Z,94681.28
2023-03-01T16:40:22.046Z,94682.59
2023-03-01T16:42:49.899Z,94679.03
2023-03-01T16:45:25.256Z,94679.91
2023-03-01T16:47:55.843Z,94669.50
2023-03-01T16:50:23.607Z,94666.59
2023-03-01T16:52:50.322Z,94667.47
2023-03-01T16:55:17.469Z,94667.19
2023-03-01T16:57:44.094Z,94661.69
2023-03-01T17:00:14.103Z,94669.94
2023-03-01T17:02:42.437Z,94662.75
2023-03-01T17:05:11.680Z,94670.97
2023-03-01T17:07:39.203Z,94673.25
2023-03-01T17:10:09.045Z,94667.78
2023-03-01T17:12:36.160Z,94672.69
2023-03-01T17:15:03.472Z,94681.38
2023-03-01T17:17:30.075Z,94673.72
2023-03-01T17:19:57.332Z,94675.72
2023-03-01T17:22:24.124Z,94679.59
2023-03-01T17:24:50.815Z,94687.09
2023-03-01T17:27:18.431Z,94687.69
2023-03-01T17:29:46.669Z,94694.06
2023-03-01T17:32:13.883Z,94694.47
2023-03-01T17:34:40.584Z,94680.63
2023-03-01T17:37:07.263Z,94694.47
2023-03-01T17:39:36.462Z,94690.13
2023-03-01T17:42:05.670Z,94686.53
2023-03-01T17:44:34.649Z,94688.81
2023-03-01T17:47:03.315Z,94690.56
2023-03-01T17:49:30.366Z,94685.78
2023-03-01T17:51:57.341Z,94697.38
2023-03-01T17:54:24.272Z,94699.19
2023-03-01T17:56:51.737Z,94708.59
2023-03-01T17:59:21.158Z,94699.69
2023-03-01T18:01:47.919Z,94703.88
2023-03-01T18:04:14.876Z,94716.13
2023-03-01T18:06:41.911Z,94708.03
2023-03-01T18:09:08.761Z,94705.00
2023-03-01T18:11:36.372Z,94709.03
2023-03-01T18:14:04.266Z,94709.56
2023-03-01T18:16:32.031Z,94715.34
2023-03-01T18:19:00.423Z,94717.78
2023-03-01T18:21:28.215Z,94714.16
2023-03-01T18:23:55.256Z,94718.22
2023-03-01T18:26:22.817Z,94724.94
2023-03-01T18:28:51.650Z,94723.63
2023-03-01T18:31:21.818Z,94720.72
2023-03-01T18:33:49.480Z,94727.94
2023-03-01T18:36:22.300Z,94716.97
2023-03-01T18:38:49.264Z,94714.22
2023-03-01T18:41:16.811Z,94707.69
2023-03-01T18:43:43.434Z,94713.03
2023-03-01T18:46:10.441Z,94724.69
2023-03-01T18:48:37.530Z,94709.97
2023-03-01T18:51:19.157Z,94708.22
2023-03-01T18:53:46.596Z,94711.25
2023-03-01T18:56:13.463Z,94706.19
2023-03-01T18:58:42.885Z,94703.00
2023-03-01T19:01:15.188Z,94704.13
2023-03-01T19:03:42.206Z,94698.50
2023-03-01T19:06:09.297Z,94698.91
2023-03-01T19:08:35.948Z,94691.53
2023-03-01T19:11:05.717Z,94689.09
2023-03-01T19:13:34.735Z,94682.59
2023-03-01T19:16:09.292Z,94682.69
2023-03-01T19:18:37.640Z,94690.88
2023-03-01T19:21:04.957Z,94683.25
2023-03-01T19:23:35.020Z,94685.25
2023-03-01T19:26:06.982Z,94685.66
2023-03-01T19:28:36.434Z,94679.88
2023-03-01T19:31:10.119Z,94680.72
2023-03-01T19:33:37.770Z,94677.97
2023-03-01T19:36:04.863Z,94669.59
2023-03-01T19:38:32.050Z,94666.69
2023-03-01T19:40:58.682Z,94674.47
2023-03-01T19:43:25.337Z,94666.19
2023-03-01T19:45:53.645Z,94666.94
2023-03-01T19:48:21.206Z,94667.03
2023-03-01T19:50:48.144Z,94657.84
2023-03-01T19:53:16.048Z,94654.63
2023-03-01T19:55:42.898Z,94655.91
2023-03-01T19:58:10.513Z,94657.03
2023-03-01T20:00:38.508Z,94653.53
2023-03-01T20:03:05.525Z,94652.09
2023-03-01T20:05:36.571Z,94648.19
2023-03-01T20:08:04.193Z,94653.78
2023-03-01T20:10:32.770Z,94651.63
2023-03-01T20:13:01.924Z,94654.31
2023-03-01T20:15:29.384Z,94650.69
2023-03-01T20:17:55.972Z,94647.38
2023-03-01T20:20:22.669Z,94644.19
2023-03-01T20:22:49.268Z,94650.50
2023-03-01T20:25:16.071Z,94644.00
2023-03-01T20:27:47.444Z,94650.03
2023-03-01T20:30:15.182Z,94639.75
2023-03-01T20:32:42.148Z,94645.34
2023-03-01T20:35:09.358Z,94641.22
2023-03-01T20:37:36.029Z,94642.03
2023-03-01T20:40:02.802Z,94640.00
2023-03-01T20:42:29.374Z,94637.41
2023-03-01T20:44:55.997Z,94634.91
2023-03-01T20:47:23.239Z,94636.47
2023-03-01T20:49:52.966Z,94632.75
2023-03-01T20:52:19.776Z,94629.88
2023-03-01T20:54:46.670Z,94629.88
2023-03-01T20:57:13.273Z,94626.25
2023-03-01T20:59:39.884Z,94626.97
2023-03-01T21:02:06.825Z,94625.53
2023-03-01T21:04:33.477Z,94635.16
2023-03-01T21:07:00.137Z,94622.63
2023-03-01T21:09:26.835Z,94621.91
2023-03-01T21:11:53.566Z,94614.16
2023-03-01T21:14:21.580Z,94619.63
2023-03-01T21:16:48.615Z,94626.38
2023-03-01T21:19:15.529Z,94632.25
2023-03-01T21:21:42.189Z,94621.59
2023-03-01T21:24:10.648Z,94615.63
2023-03-01T21:26:37.865Z,94624.72
2023-03-01T21:29:04.654Z,94620.78
2023-03-01T21:31:35.000Z,94623.69
2023-03-01T21:34:06.810Z,94617.38
2023-03-01T21:36:35.955Z,94619.97
2023-03-01T21:39:03.867Z,94610.34
2023-03-01T21:41:34.391Z,94612.50
2023-03-01T21:44:03.253Z,94611.38
2023-03-01T21:46:33.327Z,94615.81
2023-03-01T21:49:00.262Z,94610.63
2023-03-01T21:51:27.854Z,94608.47
2023-03-01T21:53:55.857Z,94607.63
2023-03-01T21:56:28.149Z,94603.94
2023-03-01T21:58:55.080Z,94599.16
2023-03-01T22:01:25.480Z,94594.31
2023-03-01T22:03:52.377Z,94597.59
2023-03-01T22:06:24.599Z,94592.44
2023-03-01T22:08:55.323Z,94597.59
2023-03-01T22:11:23.575Z,94600.50
2023-03-01T22:13:53.334Z,94592.75
2023-03-01T22:16:22.755Z,94599.34
2023-03-01T22:18:49.911Z,94598.31
2023-03-01T22:21:17.478Z,94601.94
2023-03-01T22:23:44.541Z,94593.03
2023-03-01T22:26:32.330Z,94597.34
2023-03-01T22:29:04.811Z,94586.28
2023-03-01T22:31:31.761Z,94592.19
2023-03-01T22:33:58.907Z,94590.34
2023-03-01T22:36:26.322Z,94581.41
2023-03-01T22:38:59.419Z,94586.59
2023-03-01T22:41:31.609Z,94582.84
2023-03-01T22:43:58.338Z,94589.06
2023-03-01T22:46:26.391Z,94585.44
2023-03-01T22:48:53.411Z,94578.28
2023-03-01T22:51:32.539Z,94587.53
2023-03-01T22:53:59.472Z,94580.78
2023-03-01T22:56:29.102Z,94579.31
2023-03-01T22:58:57.404Z,94579.63
2023-03-01T23:01:25.170Z,94585.09
2023-03-01T23:03:53.043Z,94571.44
2023-03-01T23:06:21.522Z,94578.38
2023-03-01T23:08:53.747Z,94583.44
2023-03-01T23:11:21.587Z,94571.34
2023-03-01T23:13:48.858Z,94573.41
2023-03-01T23:16:16.455Z,94577.00
2023-03-01T23:18:43.781Z,94572.84
2023-03-01T23:21:12.783Z,94563.22
2023-03-01T23:23:39.336Z,94562.06
2023-03-01T23:26:06.943Z,94559.06
2023-03-01T23:28:35.204Z,94553.88
2023-03-01T23:31:04.836Z,94553.44
2023-03-01T23:33:38.822Z,94556.34
2023-03-01T23:36:05.495Z,94550.44
2023-03-01T23:38:32.581Z,94543.41
2023-03-01T23:41:00.050Z,94547.84
2023-03-01T23:43:26.639Z,94554.78
2023-03-01T23:45:54.502Z,94550.16
2023-03-01T23:48:21.253Z,94556.66
2023-03-01T23:50:48.862Z,94550.19
2023-03-01T23:53:18.123Z,94547.63
2023-03-01T23:55:51.768Z,94545.75
2023-03-01T23:58:19.879Z,94539.44
